Time;durP1;ratioP1;P1;durP2;ratioP2;P2;SDS_P1;SDS_P2;PMS_P1;PMS_P2;Temp;Humidity;BMP_temperature;BMP_pressure;BME280_temperature;BME280_humidity;BME280_pressure;Samples;Min_cycle;Max_cycle;Signal;HPM_P1;HPM_P2
2023/01/08 00:01:04;;;;;;;3.38;2.47;;;;;;;11.94;61.41;99241.78;5070353;28;20420;-61
2023/01/08 00:03:32;;;;;;;3.67;2.13;;;;;;;11.91;61.78;99230.53;5072476;28;20052;-61
2023/01/08 00:06:02;;;;;;;3.35;2.10;;;;;;;11.98;61.75;99247.47;5065347;28;20126;-61
2023/01/08 00:08:29;;;;;;;2.85;1.90;;;;;;;12.03;62.25;99233.25;5069748;28;20048;-61
2023/01/08 00:10:57;;;;;;;2.35;1.77;;;;;;;12.04;62.19;99232.09;5072472;28;20060;-61
2023/01/08 00:13:26;;;;;;;2.40;1.83;;;;;;;11.99;63.95;99243.53;5065125;28;20128;-61
2023/01/08 00:15:53;;;;;;;2.35;1.70;;;;;;;11.84;65.96;99231.06;5052286;28;20060;-61
2023/01/08 00:18:21;;;;;;;2.72;1.83;;;;;;;11.66;66.76;99238.94;5052551;28;20048;-61
2023/01/08 00:20:48;;;;;;;3.05;1.70;;;;;;;11.58;66.95;99231.50;5061704;28;20056;-62
2023/01/08 00:23:18;;;;;;;3.30;1.63;;;;;;;11.50;67.24;99247.19;5071804;28;20409;-62
2023/01/08 00:25:46;;;;;;;2.47;1.77;;;;;;;11.41;67.19;99231.78;5071820;28;20067;-62
2023/01/08 00:28:14;;;;;;;2.57;1.63;;;;;;;11.44;67.16;99217.13;5071973;28;20079;-61
2023/01/08 00:30:43;;;;;;;2.53;1.42;;;;;;;11.34;67.36;99204.50;5065452;28;20064;-62
2023/01/08 00:33:11;;;;;;;2.13;1.40;;;;;;;11.41;67.41;99201.91;5050667;28;20374;-61
2023/01/08 00:35:39;;;;;;;2.72;1.60;;;;;;;11.34;67.23;99219.22;5062749;28;20072;-61
2023/01/08 00:38:07;;;;;;;2.85;1.70;;;;;;;11.49;67.53;99200.97;5072086;28;20055;-62
2023/01/08 00:40:35;;;;;;;2.80;2.00;;;;;;;11.47;67.09;99196.91;5071898;28;20404;-61
2023/01/08 00:43:04;;;;;;;2.20;1.75;;;;;;;11.53;66.90;99189.94;5072249;28;20056;-61
2023/01/08 00:45:33;;;;;;;3.17;1.70;;;;;;;11.61;66.45;99205.69;5075099;28;20067;-61
2023/01/08 00:48:02;;;;;;;2.33;1.40;;;;;;;11.61;66.03;99214.06;5076095;28;20539;-61
2023/01/08 00:50:29;;;;;;;2.22;1.48;;;;;;;11.56;66.72;99214.31;5069981;28;20045;-61
2023/01/08 00:52:56;;;;;;;2.15;1.55;;;;;;;11.57;66.13;99207.59;5075916;28;20059;-61
2023/01/08 00:55:23;;;;;;;2.17;1.40;;;;;;;11.58;66.08;99189.66;5075686;28;20075;-61
2023/01/08 00:57:51;;;;;;;2.08;1.60;;;;;;;11.62;65.88;99182.22;5075848;28;20056;-61
2023/01/08 01:00:18;;;;;;;1.85;1.35;;;;;;;11.61;65.91;99186.16;5075334;28;20056;-61
2023/01/08 01:02:49;;;;;;;2.20;1.40;;;;;;;11.59;65.73;99185.72;5075346;28;20079;-61
2023/01/08 01:05:17;;;;;;;2.40;1.33;;;;;;;11.57;65.54;99188.88;5068770;28;20424;-61
2023/01/08 01:07:45;;;;;;;3.00;1.50;;;;;;;11.61;65.22;99182.56;5074360;28;20056;-61
2023/01/08 01:10:15;;;;;;;1.90;1.30;;;;;;;11.56;65.85;99178.06;5075295;28;20048;-61
2023/01/08 01:12:45;;;;;;;2.05;1.65;;;;;;;11.53;65.61;99176.00;5074113;28;20056;-61
2023/01/08 01:15:16;;;;;;;2.17;1.30;;;;;;;11.54;65.73;99158.06;5055417;28;20052;-62
2023/01/08 01:17:46;;;;;;;1.92;1.50;;;;;;;11.55;64.99;99168.88;5055343;28;20049;-62
2023/01/08 01:20:15;;;;;;;2.20;1.50;;;;;;;11.57;65.69;99165.75;5067985;28;20056;-62
2023/01/08 01:22:46;;;;;;;2.50;1.40;;;;;;;11.54;65.28;99181.19;5075640;28;20052;-61
2023/01/08 01:25:14;;;;;;;2.35;1.30;;;;;;;11.57;65.41;99174.13;5075260;28;20496;-62
2023/01/08 01:27:41;;;;;;;2.20;1.30;;;;;;;11.57;65.39;99202.81;5075654;28;20452;-61
2023/01/08 01:30:09;;;;;;;2.08;1.23;;;;;;;11.66;65.45;99176.75;5075345;28;20044;-61
2023/01/08 01:32:37;;;;;;;2.72;1.83;;;;;;;11.68;64.97;99182.78;5071029;28;20049;-61
2023/01/08 01:35:05;;;;;;;2.90;1.30;;;;;;;11.69;65.03;99170.47;5074916;28;20489;-62
2023/01/08 01:37:32;;;;;;;2.20;1.40;;;;;;;11.58;64.93;99173.75;5074750;28;20055;-61
2023/01/08 01:40:01;;;;;;;4.55;1.80;;;;;;;11.68;65.44;99178.03;5074815;28;20045;-61
2023/01/08 01:42:42;;;;;;;2.42;1.55;;;;;;;11.73;64.56;99180.56;5074727;28;20064;-61
2023/01/08 01:45:27;;;;;;;3.03;1.80;;;;;;;11.83;64.15;99164.50;5074882;28;20052;-61
2023/01/08 01:47:58;;;;;;;2.05;1.48;;;;;;;11.83;64.20;99179.25;5070198;28;20515;-61
2023/01/08 01:50:29;;;;;;;2.05;1.50;;;;;;;11.88;63.84;99179.00;5074725;28;20045;-61
2023/01/08 01:53:03;;;;;;;2.45;1.40;;;;;;;11.85;64.07;99174.13;5074996;28;20056;-62
2023/01/08 01:55:36;;;;;;;2.40;1.63;;;;;;;11.76;64.24;99181.84;5074090;28;20053;-61
2023/01/08 01:58:10;;;;;;;2.83;1.60;;;;;;;11.76;64.32;99177.06;5074651;28;20060;-61
2023/01/08 02:00:38;;;;;;;2.83;1.70;;;;;;;11.75;64.62;99172.63;5075348;28;20067;-63
2023/01/08 02:03:05;;;;;;;2.33;1.40;;;;;;;11.86;64.14;99159.00;5067276;28;20470;-62
2023/01/08 02:05:41;;;;;;;2.28;1.52;;;;;;;11.77;64.32;99164.72;5058803;28;20048;-62
2023/01/08 02:08:13;;;;;;;1.98;1.45;;;;;;;11.88;63.88;99178.19;5075375;28;20048;-62
2023/01/08 02:10:48;;;;;;;3.00;1.60;;;;;;;11.80;64.50;99171.59;5074310;28;20398;-62
2023/01/08 02:13:23;;;;;;;2.58;1.60;;;;;;;11.78;64.52;99185.09;5068652;28;20057;-62
2023/01/08 02:16:01;;;;;;;3.15;1.85;;;;;;;11.88;64.37;99184.59;5054497;28;20057;-63
2023/01/08 02:18:40;;;;;;;2.97;1.85;;;;;;;11.86;64.87;99184.09;5068773;28;20421;-62
2023/01/08 02:21:10;;;;;;;3.42;1.50;;;;;;;11.92;64.84;99191.09;5074163;28;20494;-62
2023/01/08 02:23:54;;;;;;;3.40;1.55;;;;;;;11.94;64.69;99165.63;5074194;28;20056;-62
2023/01/08 02:26:31;;;;;;;2.55;1.70;;;;;;;11.95;65.80;99165.28;5073889;28;20060;-62
2023/01/08 02:29:03;;;;;;;2.38;1.80;;;;;;;11.78;67.05;99191.47;5073752;28;20049;-62
2023/01/08 02:31:32;;;;;;;3.55;1.73;;;;;;;11.68;67.40;99164.06;5069845;28;20048;-63
2023/01/08 02:34:04;;;;;;;4.40;2.20;;;;;;;11.64;68.44;99140.84;5074040;28;20485;-62
2023/01/08 02:36:38;;;;;;;3.40;2.17;;;;;;;11.61;68.25;99151.88;5071386;28;20055;-62
2023/01/08 02:39:15;;;;;;;3.85;2.13;;;;;;;11.55;68.70;99145.78;5072761;28;20044;-62
2023/01/08 02:41:57;;;;;;;2.10;1.67;;;;;;;11.53;68.95;99150.88;5073521;28;20053;-62
2023/01/08 02:44:34;;;;;;;2.47;1.77;;;;;;;11.58;68.91;99133.91;5073416;28;20060;-62
2023/01/08 02:47:12;;;;;;;2.92;1.90;;;;;;;11.53;69.75;99153.69;5070346;28;20052;-62
2023/01/08 02:49:43;;;;;;;4.57;1.75;;;;;;;11.54;69.29;99131.00;5072886;28;20413;-62
2023/01/08 02:52:13;;;;;;;3.00;2.10;;;;;;;11.43;69.60;99126.28;5073587;28;20061;-62
2023/01/08 02:54:44;;;;;;;2.40;1.88;;;;;;;11.36;70.50;99122.13;5073489;28;20497;-62
2023/01/08 02:57:15;;;;;;;3.88;1.80;;;;;;;11.30;70.76;99129.09;5073551;28;20052;-62
2023/01/08 02:59:45;;;;;;;3.05;1.80;;;;;;;11.28;71.07;99100.78;5068287;28;20642;-61
2023/01/08 03:02:13;;;;;;;2.88;1.92;;;;;;;11.27;71.24;99104.72;5073403;28;20404;-62
2023/01/08 03:04:51;;;;;;;3.13;1.77;;;;;;;11.24;71.22;99115.78;5073033;28;20068;-61
2023/01/08 03:07:19;;;;;;;2.75;1.77;;;;;;;11.16;71.25;99103.59;5072534;28;20060;-62
2023/01/08 03:09:49;;;;;;;2.83;1.75;;;;;;;11.28;71.31;99100.78;5073123;28;20159;-61
2023/01/08 03:12:23;;;;;;;3.90;1.83;;;;;;;11.29;70.29;99099.59;5073381;28;20052;-62
2023/01/08 03:14:55;;;;;;;2.35;1.73;;;;;;;11.41;69.82;99086.78;5061019;28;20393;-62
2023/01/08 03:17:29;;;;;;;3.15;1.77;;;;;;;11.36;69.67;99073.94;5072779;28;20421;-62
2023/01/08 03:20:02;;;;;;;2.83;2.00;;;;;;;11.27;70.40;99070.47;5072875;28;20501;-62
2023/01/08 03:22:37;;;;;;;2.70;1.88;;;;;;;11.31;70.31;99066.59;5077633;28;20059;-62
2023/01/08 03:25:25;;;;;;;4.05;2.08;;;;;;;11.21;70.34;99089.41;5073276;28;20059;-62
2023/01/08 03:27:59;;;;;;;3.67;1.70;;;;;;;11.38;69.88;99066.81;5072286;28;20529;-62
2023/01/08 03:30:31;;;;;;;2.65;1.90;;;;;;;11.40;68.97;99068.44;5067966;28;20405;-61
2023/01/08 03:33:06;;;;;;;2.60;1.70;;;;;;;11.26;69.96;99064.06;5073291;28;20052;-61
2023/01/08 03:35:40;;;;;;;2.40;1.63;;;;;;;11.31;70.05;99063.81;5072783;28;20059;-61
2023/01/08 03:38:17;;;;;;;2.88;1.63;;;;;;;11.33;70.09;99064.28;5073022;28;20063;-61
2023/01/08 03:40:51;;;;;;;3.20;1.83;;;;;;;11.36;70.36;99063.56;5069639;28;20060;-62
2023/01/08 03:43:20;;;;;;;2.80;1.63;;;;;;;11.46;69.82;99075.38;5067864;28;20052;-61
2023/01/08 03:45:53;;;;;;;2.45;1.90;;;;;;;11.41;69.80;99058.91;5072458;28;20052;-61
2023/01/08 03:48:21;;;;;;;2.33;1.70;;;;;;;11.41;69.93;99047.75;5073066;28;20053;-61
2023/01/08 03:50:48;;;;;;;2.35;1.77;;;;;;;11.35;70.16;99078.66;5072290;28;20053;-61
2023/01/08 03:53:19;;;;;;;2.50;1.73;;;;;;;11.45;70.25;99051.47;5072510;28;20412;-62
2023/01/08 03:55:47;;;;;;;2.00;1.52;;;;;;;11.39;69.96;99045.31;5070983;28;20492;-62
2023/01/08 03:58:14;;;;;;;2.20;1.48;;;;;;;11.38;70.01;99061.25;5057255;28;20055;-62
2023/01/08 04:00:46;;;;;;;2.35;1.77;;;;;;;11.39;69.85;99045.31;5064743;28;20048;-61
2023/01/08 04:03:16;;;;;;;2.80;1.92;;;;;;;11.39;69.64;99045.31;5072633;28;20061;-61
2023/01/08 04:05:44;;;;;;;2.10;1.50;;;;;;;11.45;69.76;99045.88;5071985;28;20060;-61
2023/01/08 04:08:12;;;;;;;2.55;1.77;;;;;;;11.50;69.89;99040.84;5072457;28;20060;-61
2023/01/08 04:10:39;;;;;;;2.10;1.52;;;;;;;11.43;69.55;99048.22;5072078;28;20405;-62
2023/01/08 04:13:07;;;;;;;1.98;1.42;;;;;;;11.48;69.42;99053.53;5062664;28;20040;-61
2023/01/08 04:15:34;;;;;;;1.83;1.58;;;;;;;11.26;69.77;99029.81;5072028;28;20083;-61
2023/01/08 04:18:07;;;;;;;3.53;2.03;;;;;;;11.34;69.99;99037.22;5072932;28;20052;-61
2023/01/08 04:20:34;;;;;;;2.22;1.80;;;;;;;11.43;69.60;99046.25;5053678;28;20052;-61
2023/01/08 04:23:02;;;;;;;2.63;1.50;;;;;;;11.42;69.42;99043.78;5052438;28;20059;-61
2023/01/08 04:25:32;;;;;;;3.00;1.65;;;;;;;11.38;69.80;99041.72;5052085;28;20053;-62
2023/01/08 04:27:59;;;;;;;2.42;1.92;;;;;;;11.42;69.63;99035.44;5057700;28;20393;-62
2023/01/08 04:30:33;;;;;;;3.63;1.90;;;;;;;11.34;69.87;99037.22;5071829;28;20056;-61
2023/01/08 04:33:00;;;;;;;2.28;1.58;;;;;;;11.41;70.00;99044.97;5072107;28;20055;-62
2023/01/08 04:35:29;;;;;;;2.38;1.80;;;;;;;11.50;69.48;99052.00;5072251;28;20052;-62
2023/01/08 04:37:56;;;;;;;2.50;1.70;;;;;;;11.48;69.32;99040.41;5072031;28;20052;-62
2023/01/08 04:40:24;;;;;;;1.88;1.40;;;;;;;11.52;69.26;99048.88;5072498;28;20416;-62
2023/01/08 04:42:54;;;;;;;2.88;1.75;;;;;;;11.45;69.72;99029.16;5067546;28;20060;-62
2023/01/08 04:45:22;;;;;;;2.60;1.70;;;;;;;11.52;69.73;99032.13;5072343;28;20378;-62
2023/01/08 04:47:57;;;;;;;3.17;1.80;;;;;;;11.41;69.77;99022.69;5071574;28;20048;-62
2023/01/08 04:50:29;;;;;;;3.17;1.70;;;;;;;11.35;70.53;99031.28;5071850;28;20049;-62
2023/01/08 04:53:01;;;;;;;2.47;1.75;;;;;;;11.52;70.25;99032.13;5072392;28;20055;-62
2023/01/08 04:55:29;;;;;;;2.20;1.60;;;;;;;11.44;71.23;99013.59;5071928;28;20059;-61
2023/01/08 04:57:59;;;;;;;3.33;1.83;;;;;;;11.35;71.36;99022.09;5067428;28;20048;-61
2023/01/08 05:00:27;;;;;;;2.75;1.67;;;;;;;11.33;71.63;99019.66;5072066;28;20057;-61
2023/01/08 05:02:55;;;;;;;2.35;1.67;;;;;;;11.35;71.69;99022.91;5071979;28;20179;-61
2023/01/08 05:05:22;;;;;;;2.17;1.50;;;;;;;11.37;71.62;99025.34;5071863;28;20063;-60
2023/01/08 05:07:51;;;;;;;2.50;1.50;;;;;;;11.35;71.90;99025.69;5071459;28;20413;-61
2023/01/08 05:10:19;;;;;;;3.77;1.83;;;;;;;11.32;71.95;99017.25;5068282;28;20059;-61
2023/01/08 05:12:46;;;;;;;1.90;1.67;;;;;;;11.22;72.19;99013.00;5064470;28;20048;-61
2023/01/08 05:15:13;;;;;;;2.35;1.70;;;;;;;11.09;72.77;99014.22;5051664;28;20405;-61
2023/01/08 05:17:41;;;;;;;2.50;1.70;;;;;;;11.24;72.73;99016.22;5051576;28;20057;-62
2023/01/08 05:20:09;;;;;;;2.50;1.70;;;;;;;11.13;72.64;99012.34;5051954;28;20049;-61
2023/01/08 05:22:37;;;;;;;2.60;1.38;;;;;;;11.10;72.74;99005.47;5051526;28;20384;-62
2023/01/08 05:25:07;;;;;;;2.45;1.52;;;;;;;11.15;71.90;99012.81;5052054;28;20072;-61
2023/01/08 05:27:34;;;;;;;;;;;;;;;11.11;72.58;99012.69;5065859;28;20448;-62
2023/01/08 05:30:02;;;;;;;2.28;1.60;;;;;;;11.09;72.34;99014.22;5071577;28;19920;-61
2023/01/08 05:32:30;;;;;;;2.35;1.40;;;;;;;11.14;72.00;99017.53;5074283;28;20059;-62
2023/01/08 05:34:57;;;;;;;3.08;1.20;;;;;;;11.24;71.79;99021.81;5075010;28;20489;-61
2023/01/08 05:37:25;;;;;;;3.13;1.00;;;;;;;11.17;71.47;99004.88;5074729;28;20068;-61
2023/01/08 05:39:52;;;;;;;2.03;1.23;;;;;;;11.15;71.63;99005.25;5071120;28;20053;-62
2023/01/08 05:42:21;;;;;;;2.00;1.38;;;;;;;11.22;71.16;99017.75;5054894;28;20060;-61
2023/01/08 05:44:49;;;;;;;1.58;0.90;;;;;;;11.11;70.64;99006.31;5055075;28;20397;-61
2023/01/08 05:47:16;;;;;;;2.65;0.90;;;;;;;11.20;69.78;99009.75;5055323;28;20064;-61
2023/01/08 05:49:44;;;;;;;1.45;1.00;;;;;;;11.18;69.30;98989.78;5054683;28;20486;-62
2023/01/08 05:52:11;;;;;;;1.30;0.95;;;;;;;11.18;69.74;98989.78;5055076;28;20057;-61
2023/01/08 05:54:39;;;;;;;1.83;1.10;;;;;;;11.23;69.39;98980.34;5052928;28;20067;-61
2023/01/08 05:57:06;;;;;;;1.90;0.93;;;;;;;11.26;68.82;98988.00;5035054;28;20049;-61
2023/01/08 05:59:38;;;;;;;1.67;1.00;;;;;;;11.31;68.56;98988.56;5034607;28;20060;-62
2023/01/08 06:02:05;;;;;;;2.15;1.13;;;;;;;11.31;69.14;98994.13;5034984;28;20049;-61
2023/01/08 06:04:33;;;;;;;2.28;1.08;;;;;;;11.27;69.33;99001.56;5034277;28;20049;-62
2023/01/08 06:07:00;;;;;;;2.38;1.35;;;;;;;11.36;69.35;98993.09;5035029;28;20068;-61
2023/01/08 06:09:30;;;;;;;1.50;0.90;;;;;;;11.43;69.45;98998.03;5045529;28;20049;-61
2023/01/08 06:12:11;;;;;;;2.97;1.10;;;;;;;11.40;69.08;99007.91;5072185;28;20049;-61
2023/01/08 06:14:49;;;;;;;2.17;1.00;;;;;;;11.42;68.96;99005.56;5056535;28;20056;-60
2023/01/08 06:17:16;;;;;;;1.80;1.27;;;;;;;11.51;69.00;98991.50;5054158;28;20068;-62
2023/01/08 06:19:45;;;;;;;1.60;0.90;;;;;;;11.62;68.46;98992.56;5053957;28;20055;-61
2023/01/08 06:22:12;;;;;;;2.13;0.85;;;;;;;11.56;68.91;98996.78;5054393;28;20049;-61
2023/01/08 06:24:40;;;;;;;1.63;1.10;;;;;;;11.49;68.60;98991.03;5055596;28;20056;-61
2023/01/08 06:27:10;;;;;;;1.98;1.00;;;;;;;11.40;68.72;98990.38;5074424;28;20052;-61
2023/01/08 06:29:39;;;;;;;1.90;1.08;;;;;;;11.42;69.16;98988.03;5074111;28;20064;-62
2023/01/08 06:32:09;;;;;;;1.70;1.40;;;;;;;11.43;68.78;98984.09;5073784;28;20389;-61
2023/01/08 06:34:39;;;;;;;1.30;0.75;;;;;;;11.28;69.48;98988.47;5073694;28;20056;-60
2023/01/08 06:37:07;;;;;;;1.65;0.82;;;;;;;11.27;69.22;98986.84;5074138;28;20056;-61
2023/01/08 06:39:34;;;;;;;1.70;0.93;;;;;;;11.27;68.97;98990.44;5069539;28;20058;-62
2023/01/08 06:42:01;;;;;;;1.40;0.90;;;;;;;11.10;69.82;98993.53;5073754;28;20393;-61
2023/01/08 06:44:29;;;;;;;1.60;1.00;;;;;;;11.10;69.40;98993.53;5073855;28;20053;-61
2023/01/08 06:46:56;;;;;;;1.50;0.80;;;;;;;11.17;69.37;99002.06;5073528;28;20480;-61
2023/01/08 06:49:25;;;;;;;1.50;0.80;;;;;;;11.04;69.79;98992.16;5073628;28;20052;-61
2023/01/08 06:51:52;;;;;;;1.23;0.80;;;;;;;11.03;69.62;98988.56;5073356;28;20056;-61
2023/01/08 06:54:20;;;;;;;1.67;0.88;;;;;;;11.04;69.75;98992.16;5057366;28;20057;-61
2023/01/08 06:56:48;;;;;;;1.50;0.80;;;;;;;11.15;69.51;98996.88;5053084;28;20057;-61
2023/01/08 06:59:16;;;;;;;1.30;0.85;;;;;;;11.03;69.59;99008.06;5053689;28;20057;-62
2023/01/08 07:01:43;;;;;;;1.83;0.70;;;;;;;10.96;69.68;98978.03;5052759;28;20068;-61
2023/01/08 07:04:11;;;;;;;1.45;0.80;;;;;;;11.03;69.55;98998.91;5053317;28;20056;-62
2023/01/08 07:06:40;;;;;;;1.33;1.00;;;;;;;11.04;69.75;99003.31;5052727;28;20060;-61
2023/01/08 07:09:07;;;;;;;1.27;0.80;;;;;;;11.07;69.59;98999.81;5064850;28;20048;-61
2023/01/08 07:11:35;;;;;;;1.35;0.88;;;;;;;11.04;69.75;98989.38;5071085;28;20508;-61
2023/01/08 07:14:05;;;;;;;1.00;0.70;;;;;;;11.03;69.48;98991.34;5048391;28;20052;-64
2023/01/08 07:16:32;;;;;;;2.28;1.13;;;;;;;10.96;69.65;98993.91;5068656;28;20516;-61
2023/01/08 07:19:00;;;;;;;6.18;1.00;;;;;;;11.03;69.59;98990.56;5065991;28;20053;-61
2023/01/08 07:21:27;;;;;;;1.48;0.80;;;;;;;11.05;69.33;98991.00;5068781;28;20055;-62
2023/01/08 07:23:56;;;;;;;1.80;1.10;;;;;;;11.02;69.46;98991.69;5067952;28;20048;-61
2023/01/08 07:26:23;;;;;;;1.10;0.70;;;;;;;10.92;69.56;98995.81;5069801;28;20048;-61
2023/01/08 07:28:51;;;;;;;1.98;0.80;;;;;;;10.89;69.58;98994.53;5069658;28;20378;-62
2023/01/08 07:31:18;;;;;;;1.70;1.00;;;;;;;10.96;68.82;99005.88;5070824;28;20053;-61
2023/01/08 07:33:46;;;;;;;1.50;0.90;;;;;;;11.09;68.78;99005.84;5070841;28;20401;-61
2023/01/08 07:36:14;;;;;;;1.35;0.90;;;;;;;11.15;68.23;99023.94;5063691;28;20049;-61
2023/01/08 07:38:42;;;;;;;1.35;0.70;;;;;;;11.22;67.93;99017.75;5068487;28;20076;-61
2023/01/08 07:41:12;;;;;;;1.75;0.70;;;;;;;11.32;68.10;99006.91;5068802;28;20401;-61
2023/01/08 07:43:39;;;;;;;;;;;;;;;11.21;68.21;99022.50;5064989;28;20048;-62
2023/01/08 07:46:06;;;;;;;1.75;1.00;;;;;;;11.41;68.16;99014.31;5056066;28;19943;-61
2023/01/08 07:48:34;;;;;;;1.92;0.90;;;;;;;11.28;68.90;99031.09;5068408;28;20048;-61
2023/01/08 07:51:03;;;;;;;1.33;0.85;;;;;;;11.17;70.70;99016.84;5066858;28;20053;-61
2023/01/08 07:53:30;;;;;;;2.25;0.95;;;;;;;10.89;73.31;99060.56;5053955;28;20060;-61
2023/01/08 07:56:01;;;;;;;2.63;1.30;;;;;;;11.03;74.38;99071.34;5070323;28;20449;-61
2023/01/08 07:58:30;;;;;;;2.78;1.40;;;;;;;10.97;75.15;99079.94;5061051;28;20738;-62
2023/01/08 08:00:58;;;;;;;1.63;1.00;;;;;;;11.00;74.19;99066.47;5038294;28;20516;-62
2023/01/08 08:03:26;;;;;;;2.28;0.90;;;;;;;10.95;74.12;99054.41;5049962;28;20067;-62
2023/01/08 08:05:53;;;;;;;1.23;0.60;;;;;;;10.71;72.99;99071.97;5066425;28;20056;-62
2023/01/08 08:08:23;;;;;;;1.27;0.75;;;;;;;10.66;71.58;99055.50;5064380;28;20052;-62
2023/01/08 08:10:54;;;;;;;1.20;0.57;;;;;;;10.55;71.51;99063.50;5042848;28;20080;-62
2023/01/08 08:13:21;;;;;;;0.77;0.50;;;;;;;10.54;71.77;99055.50;5051665;28;20048;-62
2023/01/08 08:15:50;;;;;;;2.25;0.80;;;;;;;10.57;71.99;99061.19;5052204;28;20119;-61
2023/01/08 08:18:18;;;;;;;1.30;0.77;;;;;;;10.49;71.25;99052.97;5046932;28;20053;-62
2023/01/08 08:20:46;;;;;;;1.85;0.80;;;;;;;10.57;71.00;99058.41;5054931;28;21030;-62
2023/01/08 08:23:15;;;;;;;0.90;0.55;;;;;;;10.56;70.85;99069.88;5068815;28;20060;-62
2023/01/08 08:25:43;;;;;;;1.37;0.57;;;;;;;10.57;69.73;99055.63;5064888;28;20397;-62
2023/01/08 08:28:16;;;;;;;3.40;0.88;;;;;;;10.56;69.19;99033.69;5044683;28;20049;-62
2023/01/08 08:30:44;;;;;;;2.42;0.70;;;;;;;10.64;68.00;99034.72;5044202;28;20111;-63
2023/01/08 08:33:13;;;;;;;2.47;0.65;;;;;;;10.75;67.65;99035.88;5047472;28;20037;-62
2023/01/08 08:35:41;;;;;;;3.08;0.80;;;;;;;10.77;67.07;99026.03;5062717;28;20493;-62
2023/01/08 08:38:09;;;;;;;1.60;0.70;;;;;;;10.84;66.71;99030.19;5044438;28;20053;-62
2023/01/08 08:40:38;;;;;;;3.85;0.80;;;;;;;10.82;66.43;99032.50;5048677;28;20053;-62
2023/01/08 08:43:06;;;;;;;;;;;;;;;10.82;65.45;99035.28;5058022;28;20048;-62
2023/01/08 08:45:34;;;;;;;2.92;1.00;;;;;;;10.79;65.01;99031.22;5060500;28;19928;-62
2023/01/08 08:48:08;;;;;;;2.25;0.80;;;;;;;10.93;64.21;99017.72;5048195;28;20481;-62
2023/01/08 08:50:48;;;;;;;2.10;0.80;;;;;;;10.93;63.69;99030.84;5063735;28;20056;-61
2023/01/08 08:53:22;;;;;;;2.53;0.60;;;;;;;11.04;63.64;99023.59;5050633;28;20049;-61
2023/01/08 08:56:00;;;;;;;2.58;0.60;;;;;;;11.06;63.02;99021.28;5051567;28;20481;-62
2023/01/08 08:58:36;;;;;;;4.63;0.90;;;;;;;11.08;62.38;99023.72;5050073;28;20056;-61
2023/01/08 09:01:04;;;;;;;1.67;0.65;;;;;;;11.11;61.88;99009.91;5050243;28;20060;-61
2023/01/08 09:03:35;;;;;;;3.25;1.17;;;;;;;11.15;61.39;99021.16;5050342;28;20040;-61
2023/01/08 09:06:04;;;;;;;3.92;0.90;;;;;;;11.17;60.77;99027.16;5064404;28;20060;-61
2023/01/08 09:08:35;;;;;;;2.10;0.90;;;;;;;11.34;59.76;99015.72;5055567;28;20060;-61
2023/01/08 09:11:14;;;;;;;3.13;1.02;;;;;;;11.48;60.00;99018.09;5052024;28;20041;-61
2023/01/08 09:13:45;;;;;;;3.50;1.02;;;;;;;11.53;59.45;99014.25;5043856;28;20045;-61
2023/01/08 09:16:13;;;;;;;3.60;0.90;;;;;;;11.96;58.88;99015.41;5061312;28;20063;-61
2023/01/08 09:18:43;;;;;;;5.25;1.25;;;;;;;11.93;57.30;99027.28;5041260;28;20060;-60
2023/01/08 09:21:20;;;;;;;5.25;1.48;;;;;;;11.82;57.17;99013.00;5052169;28;20049;-61
2023/01/08 09:23:52;;;;;;;3.40;1.00;;;;;;;12.69;55.75;99015.97;5052820;28;20409;-61
2023/01/08 09:26:22;;;;;;;4.22;1.50;;;;;;;13.34;54.36;99002.19;5053666;28;20055;-61
2023/01/08 09:28:52;;;;;;;3.33;1.05;;;;;;;13.58;53.98;99000.25;5064861;28;20047;-61
2023/01/08 09:31:20;;;;;;;6.50;1.13;;;;;;;13.57;53.11;99002.25;5058034;28;20386;-61
2023/01/08 09:33:48;;;;;;;5.00;1.15;;;;;;;13.29;54.54;99005.31;5052149;28;20056;-62
2023/01/08 09:36:17;;;;;;;1.50;0.65;;;;;;;13.19;54.26;99011.44;5055441;28;20052;-61
2023/01/08 09:38:45;;;;;;;4.05;1.17;;;;;;;14.01;51.79;98995.44;5050052;28;20052;-61
2023/01/08 09:41:19;;;;;;;3.55;1.10;;;;;;;15.37;49.75;98986.19;5047266;28;20076;-61
2023/01/08 09:43:50;;;;;;;4.00;1.13;;;;;;;18.13;44.51;98987.09;5045726;28;20045;-61
2023/01/08 09:46:20;;;;;;;4.55;1.17;;;;;;;20.11;39.22;98972.28;5068569;28;20060;-61
2023/01/08 09:48:49;;;;;;;6.68;1.17;;;;;;;19.35;39.11;98986.84;5067517;28;20056;-61
2023/01/08 09:51:20;;;;;;;4.85;1.38;;;;;;;21.76;36.00;98979.00;5058357;28;20056;-61
2023/01/08 09:53:55;;;;;;;5.25;1.35;;;;;;;23.34;33.21;98974.22;5075371;28;20048;-61
2023/01/08 09:56:22;;;;;;;3.38;1.00;;;;;;;23.13;33.34;98975.47;5074669;28;20049;-61
2023/01/08 09:58:51;;;;;;;3.45;1.00;;;;;;;23.98;32.32;98977.69;5074849;28;20052;-62
2023/01/08 10:01:22;;;;;;;3.65;1.27;;;;;;;26.08;28.70;98965.78;5074387;28;20061;-61
2023/01/08 10:03:57;;;;;;;5.95;1.48;;;;;;;25.68;28.73;98966.19;5073132;28;20059;-61
2023/01/08 10:06:25;;;;;;;3.45;1.23;;;;;;;25.33;28.93;98959.56;5034105;28;20060;-61
2023/01/08 10:08:53;;;;;;;3.38;1.20;;;;;;;22.35;33.02;98969.19;5034181;28;20420;-61
2023/01/08 10:11:22;;;;;;;3.92;1.20;;;;;;;20.10;37.45;98973.53;5034595;28;20133;-61
2023/01/08 10:13:53;;;;;;;4.40;1.63;;;;;;;19.12;39.72;98963.97;5044701;28;20045;-61
2023/01/08 10:16:29;;;;;;;3.80;1.23;;;;;;;17.94;41.47;98982.66;5054094;28;20060;-61
2023/01/08 10:18:56;;;;;;;4.43;1.08;;;;;;;17.07;43.63;98963.06;5068497;28;20136;-61
2023/01/08 10:21:30;;;;;;;3.58;1.60;;;;;;;16.57;44.55;98960.78;5068881;28;20056;-61
2023/01/08 10:23:58;;;;;;;3.30;1.13;;;;;;;15.93;46.54;98961.91;5073939;28;20052;-61
2023/01/08 10:26:28;;;;;;;2.92;1.10;;;;;;;15.61;47.37;98967.19;5074601;28;20048;-61
2023/01/08 10:29:11;;;;;;;2.35;1.15;;;;;;;15.07;49.50;98965.78;5074538;28;20059;-61
2023/01/08 10:31:46;;;;;;;3.53;1.35;;;;;;;14.95;49.46;98959.25;5059114;28;20406;-61
2023/01/08 10:34:26;;;;;;;6.18;1.50;;;;;;;15.88;47.48;98945.44;5054172;28;20049;-61
2023/01/08 10:36:58;;;;;;;5.90;1.42;;;;;;;17.89;44.36;98939.97;5072134;28;20064;-60
2023/01/08 10:39:28;;;;;;;3.45;1.00;;;;;;;17.24;43.98;98934.22;5073863;28;20056;-60
2023/01/08 10:42:02;;;;;;;2.88;1.40;;;;;;;22.25;36.35;98920.72;5074090;28;20063;-61
2023/01/08 10:44:34;;;;;;;1.88;1.00;;;;;;;25.71;29.58;98909.06;5068195;28;20059;-60
2023/01/08 10:47:02;;;;;;;2.08;1.15;;;;;;;28.04;26.90;98907.63;5073718;28;20063;-61
2023/01/08 10:49:33;;;;;;;2.30;1.10;;;;;;;30.19;23.53;98906.38;5073608;28;20064;-61
2023/01/08 10:52:02;;;;;;;2.03;1.20;;;;;;;30.39;23.91;98908.69;5069881;28;20045;-61
2023/01/08 10:54:34;;;;;;;2.22;1.20;;;;;;;30.76;23.22;98894.03;5067357;28;20075;-61
2023/01/08 10:57:02;;;;;;;1.80;1.23;;;;;;;31.57;22.69;98874.91;5060834;28;20048;-61
2023/01/08 10:59:32;;;;;;;3.83;3.53;;;;;;;33.21;20.86;98875.78;5057168;28;20049;-61
2023/01/08 11:02:00;;;;;;;10.27;9.77;;;;;;;33.79;20.55;98869.19;5048582;28;20406;-65
2023/01/08 11:04:32;;;;;;;3.58;3.33;;;;;;;31.42;22.43;98874.88;5056478;28;20049;-60
2023/01/08 11:07:03;;;;;;;4.32;4.05;;;;;;;33.68;19.97;98873.59;5052364;28;20056;-62
2023/01/08 11:09:34;;;;;;;4.32;4.03;;;;;;;33.91;19.73;98860.06;5048635;28;20049;-63
2023/01/08 11:12:02;;;;;;;8.48;7.88;;;;;;;32.09;21.43;98864.47;5062991;28;20053;-63
2023/01/08 11:14:33;;;;;;;3.55;3.25;;;;;;;33.67;20.30;98851.00;5052333;28;20053;-63
2023/01/08 11:17:02;;;;;;;10.82;10.32;;;;;;;34.04;19.44;98844.38;5051241;28;20055;-63
2023/01/08 11:19:31;;;;;;;3.88;3.50;;;;;;;34.37;19.15;98841.69;5050300;28;20056;-63
2023/01/08 11:22:01;;;;;;;22.90;21.88;;;;;;;35.29;18.10;98834.84;5049714;28;20088;-62
2023/01/08 11:24:32;;;;;;;28.23;26.98;;;;;;;34.59;18.44;98822.84;5050600;28;20403;-63
2023/01/08 11:27:05;;;;;;;16.45;15.68;;;;;;;30.73;24.26;98834.66;5052695;28;20057;-39
2023/01/08 11:29:41;;;;;;;31.60;30.15;;;;;;;30.28;23.85;98837.41;5051722;28;20049;-39
2023/01/08 11:32:29;;;;;;;13.40;12.82;;;;;;;29.39;24.19;98839.00;5049026;28;20060;-39
2023/01/08 11:35:02;;;;;;;59.58;57.08;;;;;;;28.01;26.23;98832.06;5052325;28;20433;-39
2023/01/08 11:37:37;;;;;;;28.25;27.10;;;;;;;30.96;23.80;98821.53;5069832;28;20386;-39
2023/01/08 11:40:15;;;;;;;38.55;36.92;;;;;;;30.95;22.85;98826.50;5064652;28;20053;-39
2023/01/08 11:43:03;;;;;;;1999.90;999.90;;;;;;;32.05;21.03;98819.88;5047426;28;20048;-61
2023/01/08 11:45:45;;;;;;;1999.90;999.90;;;;;;;30.75;21.72;98803.34;5042665;28;20395;-61
2023/01/08 11:48:46;;;;;;;1999.90;999.90;;;;;;;30.81;21.58;98800.59;5033831;28;20472;-61